Aroma Park, Illinois
Current Conditions -  °F | °C
As of 1:55 PM on Monday 24 Nov 2014 (Local Time) from KIKK Reporting Station
Overcast Overcast  
Wind Chill: 19°   Ceiling: 1200
Heat Index: 32°   Visibility: 10mi
Dew Point: 29°   Wind: 24mph
Humidity: 88%   Direction: 250°WSW
Pressure: 29.54"   Gusts: 37mph
Location:  41.08°N, 87.81°W
Report Text: KIKK 241955Z AUTO 25021G32KT 10SM OVC012 00/M01 A2954 RMK AO2 T00021015
Loading
Personal Weather Stations






























Interactive Weather Map New forecast layout! Learn more

10-Day Weather Forecast

Advertisements
Track Severe Weather on mobile